This is the latest recevied weather packets stored in our database for station/object EA1FBN. If no packets are shown the sender has not sent any weather packets the latest 10 day(s).
| Time | Temp. | Humidity | Pressure | Rain* | Wind** | Luminosity | Snow |
|---|---|---|---|---|---|---|---|
| 1787597736 | 17.22° C | 77% | 1010.2 hPa | 6.1 mm | - | - | - |
| 1787597136 | 18.33° C | 77% | 1010.1 hPa | 2.29 mm | - | - | - |
| 1787596836 | 19.44° C | 74% | 1009.7 hPa | 0.76 mm | - | - | - |
| 1787596236 | 21.67° C | 62% | 1009.4 hPa | 0.25 mm | - | - | - |
| 1787595936 | 21.67° C | 61% | 1009.1 hPa | 0.25 mm | - | - | - |
| 1787595336 | 21.67° C | 60% | 1008.9 hPa | 0.25 mm | - | - | - |
| 1787595036 | 21.67° C | 60% | 1008.9 hPa | 0.25 mm | - | - | - |
| 1787594436 | 21.67° C | 59% | 1008.9 hPa | 0 mm | - | - | - |
| 1787594136 | 21.67° C | 59% | 1008.9 hPa | 0 mm | - | - | - |
| 1787593536 | 22.22° C | 57% | 1009 hPa | 0 mm | - | - | - |
| 1787593236 | 22.22° C | 58% | 1009.1 hPa | 0 mm | - | - | - |
| 1787592636 | 22.22° C | 58% | 1009.1 hPa | 0 mm | - | - | - |
| 1787592336 | 22.78° C | 56% | 1009 hPa | 0 mm | - | - | - |
| 1787591736 | 22.22° C | 57% | 1009.1 hPa | 0 mm | - | - | - |
| 1787591436 | 22.22° C | 59% | 1009.1 hPa | 0.25 mm | - | - | - |
| 1787590837 | 22.22° C | 60% | 1009 hPa | 0.25 mm | - | - | - |
| 1787590537 | 22.22° C | 61% | 1008.9 hPa | 0.25 mm | - | - | - |
| 1787589937 | 21.67° C | 62% | 1009 hPa | 0.25 mm | - | - | - |
| 1787589637 | 21.67° C | 63% | 1009 hPa | 0.25 mm | - | - | - |
| 1787589037 | 21.11° C | 69% | 1008.8 hPa | 0.25 mm | - | - | - |
| 1787588737 | 20.56° C | 71% | 1008.9 hPa | 0.25 mm | - | - | - |
| 1787588137 | 20° C | 70% | 1009 hPa | 0.25 mm | - | - | - |
| 1787587837 | 20.56° C | 68% | 1009.3 hPa | 0 mm | - | - | - |
| 1787587237 | 21.67° C | 61% | 1009.2 hPa | 0 mm | - | - | - |
| 1787586937 | 23.33° C | 53% | 1009 hPa | 0 mm | - | - | - |
* Rain latest hour (hover to see other rain measurements)
** Current wind speed in m/s (hover to see current wind gust speed)